createdAt,value
2019-06-26T00:01:11.914Z,7.20
2019-06-26T00:03:38.106Z,7.70
2019-06-26T00:06:04.084Z,7.87
2019-06-26T00:08:30.321Z,7.77
2019-06-26T00:10:56.786Z,7.47
2019-06-26T00:13:26.629Z,7.63
2019-06-26T00:15:50.520Z,7.97
2019-06-26T00:18:16.352Z,7.73
2019-06-26T00:20:42.695Z,7.40
2019-06-26T00:23:08.552Z,7.10
2019-06-26T00:25:34.431Z,7.13
2019-06-26T00:28:00.297Z,7.40
2019-06-26T00:30:26.397Z,7.80
2019-06-26T00:32:52.252Z,7.77
2019-06-26T00:35:18.132Z,7.80
2019-06-26T00:37:43.991Z,6.73
2019-06-26T00:40:10.481Z,7.53
2019-06-26T00:42:36.331Z,7.07
2019-06-26T00:45:04.622Z,7.13
2019-06-26T00:47:30.480Z,7.73
2019-06-26T00:49:56.343Z,7.30
2019-06-26T00:52:22.247Z,7.27
2019-06-26T00:54:48.084Z,7.57
2019-06-26T00:57:13.977Z,7.97
2019-06-26T00:59:39.854Z,7.57
2019-06-26T01:02:05.720Z,8.23
2019-06-26T01:04:36.045Z,8.10
2019-06-26T01:07:01.932Z,8.37
2019-06-26T01:09:27.791Z,8.67
2019-06-26T01:11:53.681Z,8.63
2019-06-26T01:14:19.541Z,7.87
2019-06-26T01:16:45.447Z,8.23
2019-06-26T01:19:11.311Z,8.70
2019-06-26T01:21:37.223Z,8.37
2019-06-26T01:24:03.603Z,9.33
2019-06-26T01:26:29.489Z,9.83
2019-06-26T01:28:55.351Z,8.70
2019-06-26T01:31:21.234Z,8.53
2019-06-26T01:33:47.394Z,8.90
2019-06-26T01:36:13.288Z,8.77
2019-06-26T01:38:39.144Z,9.23
2019-06-26T01:41:05.002Z,8.40
2019-06-26T01:43:30.888Z,9.20
2019-06-26T01:45:56.743Z,8.17
2019-06-26T01:48:22.625Z,8.73
2019-06-26T01:50:48.480Z,8.97
2019-06-26T01:53:14.359Z,9.30
2019-06-26T01:55:40.220Z,8.87
2019-06-26T01:58:06.102Z,9.70
2019-06-26T02:00:31.994Z,9.10
2019-06-26T02:02:57.843Z,9.43
2019-06-26T02:05:23.707Z,8.83
2019-06-26T02:07:49.595Z,9.27
2019-06-26T02:10:15.689Z,8.97
2019-06-26T02:12:41.670Z,8.90
2019-06-26T02:15:08.501Z,9.13
2019-06-26T02:17:34.415Z,9.37
2019-06-26T02:20:00.280Z,9.67
2019-06-26T02:22:26.166Z,9.90
2019-06-26T02:24:52.027Z,9.63
2019-06-26T02:27:17.908Z,9.87
2019-06-26T02:29:43.767Z,9.00
2019-06-26T02:32:09.627Z,9.03
2019-06-26T02:34:35.519Z,9.50
2019-06-26T02:37:01.386Z,9.57
2019-06-26T02:39:27.295Z,9.07
2019-06-26T02:41:53.231Z,9.80
2019-06-26T02:44:19.125Z,9.93
2019-06-26T02:46:44.989Z,9.67
2019-06-26T02:49:10.871Z,9.93
2019-06-26T02:51:36.733Z,9.90
2019-06-26T02:54:03.118Z,9.20
2019-06-26T02:56:28.982Z,9.63
2019-06-26T02:58:54.869Z,9.70
2019-06-26T03:01:20.729Z,10.00
2019-06-26T03:03:46.611Z,9.57
2019-06-26T03:06:12.468Z,9.07
2019-06-26T03:08:38.851Z,9.63
2019-06-26T03:11:04.728Z,9.87
2019-06-26T03:13:30.608Z,10.10
2019-06-26T03:15:56.525Z,10.63
2019-06-26T03:18:22.415Z,9.47
2019-06-26T03:20:52.067Z,9.60
2019-06-26T03:23:17.960Z,9.53
2019-06-26T03:25:43.812Z,9.63
2019-06-26T03:28:09.680Z,9.67
2019-06-26T03:30:35.567Z,9.33
2019-06-26T03:33:01.466Z,9.67
2019-06-26T03:35:27.416Z,9.40
2019-06-26T03:37:53.264Z,9.60
2019-06-26T03:40:19.754Z,9.20
2019-06-26T03:42:45.615Z,9.57
2019-06-26T03:45:25.237Z,9.47
2019-06-26T03:47:39.489Z,9.43
2019-06-26T03:50:05.883Z,9.60
2019-06-26T03:52:31.740Z,8.80
2019-06-26T03:54:57.646Z,8.83
2019-06-26T03:57:23.580Z,8.50
2019-06-26T03:59:49.599Z,9.40
2019-06-26T04:02:15.443Z,8.37
2019-06-26T04:04:41.327Z,9.00
2019-06-26T04:07:07.201Z,8.10
2019-06-26T04:09:33.183Z,8.73
2019-06-26T04:11:59.060Z,7.50
2019-06-26T04:14:24.923Z,7.67
2019-06-26T04:16:50.812Z,7.80
2019-06-26T04:19:16.691Z,7.37
2019-06-26T04:21:42.626Z,8.20
2019-06-26T04:24:08.603Z,9.00
2019-06-26T04:26:34.457Z,8.20
2019-06-26T04:29:00.307Z,8.27
2019-06-26T04:31:26.196Z,8.50
2019-06-26T04:33:52.054Z,8.73
2019-06-26T04:36:18.030Z,7.80
2019-06-26T04:38:43.890Z,7.77
2019-06-26T04:41:09.767Z,8.67
2019-06-26T04:43:35.622Z,8.83
2019-06-26T04:46:01.524Z,8.43
2019-06-26T04:48:27.362Z,9.47
2019-06-26T04:50:53.248Z,8.63
2019-06-26T04:53:19.099Z,8.90
2019-06-26T04:55:44.986Z,8.10
2019-06-26T04:58:10.838Z,8.90
2019-06-26T05:00:36.718Z,8.40
2019-06-26T05:03:02.575Z,9.17
2019-06-26T05:05:38.943Z,8.40
2019-06-26T05:07:56.209Z,8.70
2019-06-26T05:10:22.724Z,9.47
2019-06-26T05:12:48.597Z,9.27
2019-06-26T05:15:15.566Z,8.93
2019-06-26T05:17:41.447Z,9.57
2019-06-26T05:20:07.835Z,9.10
2019-06-26T05:22:33.691Z,9.50
2019-06-26T05:24:59.548Z,9.17
2019-06-26T05:27:25.434Z,9.07
2019-06-26T05:29:54.304Z,8.83
2019-06-26T05:32:19.076Z,8.43
2019-06-26T05:34:44.931Z,7.93
2019-06-26T05:37:10.810Z,7.90
2019-06-26T05:39:36.671Z,8.10
2019-06-26T05:42:05.749Z,8.57
2019-06-26T05:44:30.343Z,8.40
2019-06-26T05:46:56.229Z,8.77
2019-06-26T05:49:22.080Z,8.30
2019-06-26T05:51:48.064Z,9.20
2019-06-26T05:54:13.921Z,9.43
2019-06-26T05:56:39.803Z,9.33
2019-06-26T05:59:05.656Z,10.40
2019-06-26T06:01:31.539Z,9.57
2019-06-26T06:03:57.399Z,8.90
2019-06-26T06:06:23.379Z,10.57
2019-06-26T06:08:49.256Z,9.77
2019-06-26T06:11:15.127Z,10.03
2019-06-26T06:13:40.983Z,10.13
2019-06-26T06:16:06.863Z,10.30
2019-06-26T06:18:33.650Z,10.80
2019-06-26T06:21:00.093Z,10.00
2019-06-26T06:23:26.068Z,10.93
2019-06-26T06:25:52.061Z,10.07
2019-06-26T06:28:18.407Z,10.27
2019-06-26T06:30:44.269Z,9.97
2019-06-26T06:33:10.161Z,10.40
2019-06-26T06:35:36.015Z,10.23
2019-06-26T06:38:01.896Z,11.03
2019-06-26T06:40:27.746Z,11.60
2019-06-26T06:42:53.737Z,11.30
2019-06-26T06:45:20.144Z,12.07
2019-06-26T06:47:46.079Z,10.33
2019-06-26T06:50:12.043Z,12.23
2019-06-26T06:52:38.162Z,11.70
2019-06-26T06:55:05.116Z,10.83
2019-06-26T06:57:31.004Z,10.57
2019-06-26T06:59:56.860Z,11.07
2019-06-26T07:02:22.744Z,10.87
2019-06-26T07:04:48.630Z,11.00
2019-06-26T07:07:14.490Z,11.53
2019-06-26T07:09:40.477Z,9.53
2019-06-26T07:12:06.330Z,10.90
2019-06-26T07:14:32.183Z,11.97
2019-06-26T07:17:01.346Z,10.43
2019-06-26T07:19:25.864Z,9.70
2019-06-26T07:21:51.722Z,10.73
2019-06-26T07:24:17.594Z,10.47
2019-06-26T07:26:43.451Z,8.67
2019-06-26T07:29:09.330Z,8.33
2019-06-26T07:31:38.362Z,9.33
2019-06-26T07:34:02.972Z,8.10
2019-06-26T07:36:28.827Z,8.23
2019-06-26T07:38:54.714Z,7.63
2019-06-26T07:41:20.573Z,8.03
2019-06-26T07:43:46.453Z,7.33
2019-06-26T07:46:12.320Z,7.73
2019-06-26T07:48:38.196Z,7.53
2019-06-26T07:51:04.119Z,8.00
2019-06-26T07:53:30.181Z,6.90
2019-06-26T07:55:56.804Z,7.00
2019-06-26T07:58:23.030Z,6.27
2019-06-26T08:00:49.439Z,6.83
2019-06-26T08:03:16.074Z,6.70
2019-06-26T08:05:43.249Z,5.97
2019-06-26T08:08:09.383Z,6.87
2019-06-26T08:10:35.497Z,5.67
2019-06-26T08:13:02.210Z,6.80
2019-06-26T08:15:28.668Z,7.30
2019-06-26T08:18:00.668Z,6.20
2019-06-26T08:20:22.453Z,5.67
2019-06-26T08:22:48.317Z,6.03
2019-06-26T08:25:14.399Z,5.63
2019-06-26T08:27:40.250Z,5.50
2019-06-26T08:30:07.143Z,6.00
2019-06-26T08:32:33.004Z,5.23
2019-06-26T08:34:58.888Z,5.70
2019-06-26T08:37:24.751Z,4.70
2019-06-26T08:39:50.675Z,5.70
2019-06-26T08:42:16.589Z,6.57
2019-06-26T08:44:42.479Z,5.40
2019-06-26T08:47:08.342Z,7.73
2019-06-26T08:49:34.253Z,6.70
2019-06-26T08:52:00.211Z,5.47
2019-06-26T08:54:26.159Z,5.60
2019-06-26T08:56:52.022Z,5.13
2019-06-26T08:59:18.002Z,5.93
2019-06-26T09:01:43.862Z,6.50
2019-06-26T09:04:09.750Z,6.20
2019-06-26T09:06:35.609Z,5.97
2019-06-26T09:09:01.503Z,6.27
2019-06-26T09:11:27.391Z,6.03
2019-06-26T09:13:53.218Z,5.37
2019-06-26T09:16:19.124Z,5.57
2019-06-26T09:18:44.991Z,5.60
2019-06-26T09:21:10.989Z,5.67
2019-06-26T09:23:36.951Z,6.13
2019-06-26T09:26:02.963Z,5.33
2019-06-26T09:28:28.893Z,5.60
2019-06-26T09:30:54.776Z,5.77
2019-06-26T09:33:20.635Z,6.50
2019-06-26T09:35:46.521Z,5.67
2019-06-26T09:38:12.394Z,5.30
2019-06-26T09:40:38.285Z,5.30
2019-06-26T09:43:04.127Z,4.80
2019-06-26T09:45:30.010Z,4.40
2019-06-26T09:47:55.861Z,4.73
2019-06-26T09:50:21.842Z,3.97
2019-06-26T09:52:47.703Z,4.37
2019-06-26T09:55:13.802Z,4.40
2019-06-26T09:57:39.747Z,4.40
2019-06-26T10:00:11.618Z,4.37
2019-06-26T10:02:37.511Z,4.17
2019-06-26T10:05:07.590Z,3.77
2019-06-26T10:07:33.439Z,3.60
2019-06-26T10:09:59.302Z,3.73
2019-06-26T10:12:25.183Z,3.77
2019-06-26T10:14:51.043Z,3.57
2019-06-26T10:17:16.956Z,3.50
2019-06-26T10:19:42.811Z,3.17
2019-06-26T10:22:08.695Z,3.50
2019-06-26T10:24:34.549Z,3.10
2019-06-26T10:27:00.509Z,3.70
2019-06-26T10:29:26.401Z,3.57
2019-06-26T10:31:52.389Z,3.43
2019-06-26T10:34:18.305Z,3.67
2019-06-26T10:36:44.187Z,3.30
2019-06-26T10:39:10.054Z,3.57
2019-06-26T10:41:35.932Z,3.40
2019-06-26T10:44:01.788Z,2.90
2019-06-26T10:46:27.670Z,3.70
2019-06-26T10:48:53.634Z,3.53
2019-06-26T10:51:19.523Z,4.43
2019-06-26T10:53:45.382Z,3.97
2019-06-26T10:56:11.263Z,4.03
2019-06-26T10:58:37.118Z,3.67
2019-06-26T11:01:03.099Z,3.70
2019-06-26T11:03:28.963Z,3.37
2019-06-26T11:05:54.816Z,4.03
2019-06-26T11:08:20.701Z,3.90
2019-06-26T11:10:46.688Z,3.50
2019-06-26T11:13:12.647Z,3.70
2019-06-26T11:15:38.518Z,3.17
2019-06-26T11:18:04.618Z,3.27
2019-06-26T11:20:30.473Z,3.17
2019-06-26T11:22:56.358Z,3.40
2019-06-26T11:25:22.221Z,3.47
2019-06-26T11:27:48.198Z,3.70
2019-06-26T11:30:14.755Z,3.60
2019-06-26T11:32:40.644Z,3.43
2019-06-26T11:35:06.901Z,3.43
2019-06-26T11:37:32.778Z,3.57
2019-06-26T11:39:58.638Z,3.33
2019-06-26T11:42:24.514Z,4.10
2019-06-26T11:44:50.371Z,3.57
2019-06-26T11:47:16.266Z,3.17
2019-06-26T11:49:42.221Z,3.07
2019-06-26T11:52:08.295Z,3.07
2019-06-26T11:54:34.147Z,3.50
2019-06-26T11:57:00.037Z,3.30
2019-06-26T11:59:25.891Z,3.27
2019-06-26T12:01:51.750Z,3.33
2019-06-26T12:04:17.630Z,3.07
2019-06-26T12:06:45.889Z,3.23
2019-06-26T12:09:11.271Z,3.07
2019-06-26T12:11:37.128Z,3.73
2019-06-26T12:14:03.225Z,3.77
2019-06-26T12:16:29.131Z,4.07
2019-06-26T12:18:55.023Z,3.90
2019-06-26T12:21:21.171Z,3.57
2019-06-26T12:23:47.159Z,3.63
2019-06-26T12:26:13.011Z,3.67
2019-06-26T12:28:38.904Z,3.93
2019-06-26T12:31:04.759Z,3.87
2019-06-26T12:33:30.644Z,4.43
2019-06-26T12:35:56.504Z,3.30
2019-06-26T12:38:22.381Z,3.60
2019-06-26T12:40:48.233Z,3.40
2019-06-26T12:43:14.131Z,3.30
2019-06-26T12:45:39.984Z,3.77
2019-06-26T12:48:05.998Z,3.60
2019-06-26T12:50:36.001Z,3.50
2019-06-26T12:52:59.629Z,3.10
2019-06-26T12:55:25.573Z,3.57
2019-06-26T12:57:51.633Z,3.70
2019-06-26T13:00:17.761Z,3.70
2019-06-26T13:02:43.618Z,3.90
2019-06-26T13:05:11.598Z,3.47
2019-06-26T13:07:37.571Z,4.37
2019-06-26T13:10:07.547Z,3.20
2019-06-26T13:12:33.111Z,3.50
2019-06-26T13:14:59.000Z,3.07
2019-06-26T13:17:24.882Z,3.10
2019-06-26T13:19:50.770Z,3.53
2019-06-26T13:22:16.630Z,3.20
2019-06-26T13:24:44.138Z,3.50
2019-06-26T13:27:10.272Z,3.13
2019-06-26T13:29:36.148Z,2.97
2019-06-26T13:32:02.000Z,3.23
2019-06-26T13:34:27.888Z,3.10
2019-06-26T13:36:53.744Z,4.40
2019-06-26T13:39:19.626Z,4.00
2019-06-26T13:41:45.484Z,2.93
2019-06-26T13:44:11.461Z,3.13
2019-06-26T13:46:37.326Z,3.20
2019-06-26T13:49:03.201Z,3.37
2019-06-26T13:51:29.050Z,3.77
2019-06-26T13:53:54.932Z,3.03
2019-06-26T13:56:20.814Z,3.07
2019-06-26T13:58:46.673Z,2.70
2019-06-26T14:01:12.552Z,2.70
2019-06-26T14:03:38.410Z,3.13
2019-06-26T14:06:04.392Z,3.40
2019-06-26T14:08:32.786Z,2.80
2019-06-26T14:10:58.042Z,3.03
2019-06-26T14:13:23.899Z,2.97
2019-06-26T14:15:49.800Z,2.93
2019-06-26T14:18:15.683Z,3.03
2019-06-26T14:20:41.567Z,2.50
2019-06-26T14:23:07.429Z,2.83
2019-06-26T14:25:35.412Z,2.50
2019-06-26T14:28:01.302Z,2.37
2019-06-26T14:30:28.071Z,2.37
2019-06-26T14:32:54.134Z,2.43
2019-06-26T14:35:20.040Z,2.33
2019-06-26T14:37:45.911Z,3.00
2019-06-26T14:40:12.300Z,2.57
2019-06-26T14:42:38.261Z,2.70
2019-06-26T14:45:07.511Z,2.90
2019-06-26T14:47:35.681Z,2.53
2019-06-26T14:50:02.856Z,3.03
2019-06-26T14:52:28.713Z,3.43
2019-06-26T14:54:54.584Z,3.10
2019-06-26T14:57:20.472Z,3.53
2019-06-26T14:59:46.330Z,3.30
2019-06-26T15:02:12.216Z,3.00
2019-06-26T15:04:38.109Z,3.30
2019-06-26T15:07:03.995Z,3.27
2019-06-26T15:09:29.872Z,3.17
2019-06-26T15:11:55.832Z,3.23
2019-06-26T15:14:21.848Z,3.77
2019-06-26T15:16:47.885Z,2.93
2019-06-26T15:19:13.735Z,3.00
2019-06-26T15:21:39.615Z,3.97
2019-06-26T15:24:05.478Z,3.80
2019-06-26T15:26:31.386Z,3.60
2019-06-26T15:28:57.227Z,3.90
2019-06-26T15:31:23.112Z,3.90
2019-06-26T15:33:48.964Z,4.23
2019-06-26T15:36:14.851Z,4.53
2019-06-26T15:38:40.714Z,4.97
2019-06-26T15:41:06.607Z,5.13
2019-06-26T15:43:32.480Z,4.90
2019-06-26T15:45:59.470Z,4.63
2019-06-26T15:48:25.435Z,5.33
2019-06-26T15:50:51.289Z,5.03
2019-06-26T15:53:17.401Z,4.90
2019-06-26T15:55:43.352Z,5.10
2019-06-26T15:58:09.386Z,5.93
2019-06-26T16:00:35.298Z,5.37
2019-06-26T16:03:01.191Z,5.20
2019-06-26T16:05:27.049Z,5.00
2019-06-26T16:07:52.938Z,4.00
2019-06-26T16:10:18.892Z,4.33
2019-06-26T16:12:44.779Z,4.20
2019-06-26T16:15:11.240Z,4.80
2019-06-26T16:17:41.831Z,4.70
2019-06-26T16:20:07.804Z,4.17
2019-06-26T16:22:33.681Z,4.43
2019-06-26T16:24:59.567Z,4.70
2019-06-26T16:27:25.446Z,5.00
2019-06-26T16:29:51.311Z,5.17
2019-06-26T16:32:17.204Z,4.77
2019-06-26T16:34:43.069Z,5.00
2019-06-26T16:37:08.969Z,4.77
2019-06-26T16:39:34.909Z,5.03
2019-06-26T16:42:00.797Z,4.93
2019-06-26T16:44:26.659Z,5.20
2019-06-26T16:46:52.522Z,5.47
2019-06-26T16:49:18.410Z,5.63
2019-06-26T16:51:44.281Z,4.80
2019-06-26T16:54:10.166Z,5.00
2019-06-26T16:56:36.023Z,4.23
2019-06-26T16:59:01.912Z,3.40
2019-06-26T17:01:27.780Z,2.90
2019-06-26T17:03:53.659Z,2.90
2019-06-26T17:06:19.527Z,2.53
2019-06-26T17:08:45.423Z,2.70
2019-06-26T17:11:11.285Z,2.30
2019-06-26T17:13:37.182Z,2.33
2019-06-26T17:16:03.372Z,2.30
2019-06-26T17:18:29.481Z,2.40
2019-06-26T17:20:55.452Z,2.63
2019-06-26T17:23:21.335Z,2.67
2019-06-26T17:25:47.192Z,2.67
2019-06-26T17:28:13.083Z,2.70
2019-06-26T17:30:38.942Z,2.47
2019-06-26T17:33:04.830Z,2.60
2019-06-26T17:35:30.703Z,3.67
2019-06-26T17:37:56.592Z,2.70
2019-06-26T17:40:22.455Z,3.70
2019-06-26T17:42:48.314Z,3.27
2019-06-26T17:45:14.401Z,3.57
2019-06-26T17:47:40.317Z,3.30
2019-06-26T17:50:06.753Z,3.20
2019-06-26T17:52:35.599Z,3.70
2019-06-26T17:55:00.400Z,2.87
2019-06-26T17:57:26.269Z,3.33
2019-06-26T17:59:52.157Z,2.90
2019-06-26T18:02:18.117Z,3.30
2019-06-26T18:04:44.005Z,2.80
2019-06-26T18:07:09.863Z,3.10
2019-06-26T18:09:35.761Z,3.30
2019-06-26T18:12:01.767Z,2.50
2019-06-26T18:14:27.652Z,3.20
2019-06-26T18:16:53.547Z,3.73
2019-06-26T18:19:19.438Z,3.90
2019-06-26T18:21:45.321Z,3.50
2019-06-26T18:24:11.206Z,3.40
2019-06-26T18:26:37.069Z,3.93
2019-06-26T18:29:02.995Z,3.50
2019-06-26T18:31:30.634Z,3.17
2019-06-26T18:33:56.592Z,4.03
2019-06-26T18:36:23.206Z,3.67
2019-06-26T18:38:49.069Z,3.70
2019-06-26T18:41:18.473Z,3.87
2019-06-26T18:43:42.716Z,3.50
2019-06-26T18:46:08.615Z,4.30
2019-06-26T18:48:34.521Z,4.13
2019-06-26T18:51:00.422Z,3.93
2019-06-26T18:53:26.299Z,3.90
2019-06-26T18:55:52.174Z,3.50
2019-06-26T18:58:18.335Z,3.70
2019-06-26T19:00:44.232Z,3.73
2019-06-26T19:03:10.096Z,3.87
2019-06-26T19:05:35.972Z,3.80
2019-06-26T19:08:01.843Z,3.83
2019-06-26T19:10:27.756Z,3.90
2019-06-26T19:12:53.612Z,3.77
2019-06-26T19:15:19.510Z,3.90
2019-06-26T19:17:45.412Z,3.20
2019-06-26T19:20:11.696Z,3.20
2019-06-26T19:22:37.563Z,3.30
2019-06-26T19:25:04.949Z,3.03
2019-06-26T19:27:30.811Z,2.90
2019-06-26T19:29:56.730Z,3.90
2019-06-26T19:32:22.642Z,2.40
2019-06-26T19:34:48.499Z,3.13
2019-06-26T19:37:14.390Z,2.97
2019-06-26T19:39:40.318Z,2.97
2019-06-26T19:42:06.213Z,2.70
2019-06-26T19:44:32.951Z,2.67
2019-06-26T19:46:59.807Z,2.90
2019-06-26T19:49:29.699Z,3.40
2019-06-26T19:51:55.844Z,3.03
2019-06-26T19:54:27.217Z,2.80
2019-06-26T19:56:50.141Z,2.93
2019-06-26T19:59:16.887Z,2.67
2019-06-26T20:01:43.257Z,3.00
2019-06-26T20:04:09.124Z,3.07
2019-06-26T20:06:35.143Z,3.20
2019-06-26T20:09:01.010Z,2.83
2019-06-26T20:11:26.887Z,3.23
2019-06-26T20:13:52.749Z,3.10
2019-06-26T20:16:18.771Z,3.53
2019-06-26T20:18:44.928Z,3.50
2019-06-26T20:21:10.819Z,3.20
2019-06-26T20:23:36.685Z,3.67
2019-06-26T20:26:02.552Z,3.33
2019-06-26T20:28:28.459Z,3.07
2019-06-26T20:30:54.815Z,3.73
2019-06-26T20:33:21.247Z,3.53
2019-06-26T20:35:47.568Z,3.50
2019-06-26T20:38:13.898Z,3.70
2019-06-26T20:40:39.747Z,3.63
2019-06-26T20:43:05.635Z,3.77
2019-06-26T20:45:32.157Z,3.43
2019-06-26T20:47:58.043Z,3.27
2019-06-26T20:50:24.243Z,3.53
2019-06-26T20:52:50.134Z,2.73
2019-06-26T20:55:16.005Z,3.37
2019-06-26T20:57:41.986Z,3.60
2019-06-26T21:00:08.834Z,3.67
2019-06-26T21:02:35.052Z,2.50
2019-06-26T21:05:01.010Z,3.50
2019-06-26T21:07:27.019Z,3.63
2019-06-26T21:09:52.880Z,2.87
2019-06-26T21:12:18.816Z,3.30
2019-06-26T21:14:44.771Z,3.27
2019-06-26T21:17:10.685Z,3.47
2019-06-26T21:19:36.555Z,3.00
2019-06-26T21:22:02.412Z,3.70
2019-06-26T21:24:28.320Z,2.83
2019-06-26T21:26:54.590Z,2.97
2019-06-26T21:29:21.229Z,3.03
2019-06-26T21:31:47.090Z,3.20
2019-06-26T21:34:12.982Z,2.77
2019-06-26T21:36:39.325Z,2.90
2019-06-26T21:39:05.954Z,3.20
2019-06-26T21:41:31.983Z,2.43
2019-06-26T21:43:57.875Z,2.80
2019-06-26T21:46:23.736Z,3.40
2019-06-26T21:48:49.625Z,2.43
2019-06-26T21:51:15.540Z,2.90
2019-06-26T21:53:41.432Z,3.10
2019-06-26T21:56:07.298Z,2.80
2019-06-26T21:58:33.184Z,3.20
2019-06-26T22:00:59.163Z,3.20
2019-06-26T22:03:25.074Z,3.30
2019-06-26T22:05:51.003Z,2.83
2019-06-26T22:08:16.940Z,2.93
2019-06-26T22:10:42.961Z,3.30
2019-06-26T22:13:09.000Z,2.97
2019-06-26T22:15:34.877Z,3.10
2019-06-26T22:18:00.827Z,3.23
2019-06-26T22:20:26.710Z,3.03
2019-06-26T22:22:52.574Z,3.60
2019-06-26T22:25:18.569Z,3.10
2019-06-26T22:27:44.431Z,3.03
2019-06-26T22:30:10.917Z,2.97
2019-06-26T22:32:36.772Z,3.20
2019-06-26T22:35:04.356Z,3.53
2019-06-26T22:37:30.346Z,3.90
2019-06-26T22:39:56.228Z,3.63
2019-06-26T22:42:22.471Z,3.53
2019-06-26T22:44:48.347Z,3.20
2019-06-26T22:47:14.231Z,3.23
2019-06-26T22:49:40.123Z,3.77
2019-06-26T22:52:05.988Z,3.67
2019-06-26T22:54:31.890Z,3.73
2019-06-26T22:56:57.747Z,4.10
2019-06-26T22:59:23.731Z,3.63
2019-06-26T23:01:49.598Z,3.40
2019-06-26T23:04:15.571Z,3.50
2019-06-26T23:06:41.450Z,3.90
2019-06-26T23:09:07.310Z,3.90
2019-06-26T23:11:33.201Z,4.07
2019-06-26T23:13:59.076Z,4.03
2019-06-26T23:16:24.961Z,3.47
2019-06-26T23:18:50.857Z,3.83
2019-06-26T23:21:16.825Z,3.47
2019-06-26T23:23:42.688Z,4.30
2019-06-26T23:26:23.010Z,3.30
2019-06-26T23:28:36.393Z,4.43
2019-06-26T23:31:02.289Z,4.20
2019-06-26T23:33:28.239Z,3.73
2019-06-26T23:35:54.135Z,4.00
2019-06-26T23:38:20.522Z,3.60
2019-06-26T23:40:46.409Z,3.23
2019-06-26T23:43:12.281Z,4.13
2019-06-26T23:45:38.173Z,3.57
2019-06-26T23:48:04.030Z,3.27
2019-06-26T23:50:29.926Z,3.53
2019-06-26T23:52:55.790Z,3.47
2019-06-26T23:55:21.679Z,3.60
2019-06-26T23:57:58.550Z,4.07
